»·PEaware :: N196EC L45-KSNA

N196EC :: L45-KSNA

FLIGHT INFORMATION

Flight Status: Arrived
Operator: Privately registered:
United States
More flights under this callsign
Pilot: Adrián R. (20842)
Aircraft: BEECH AIRCRAFT DEBONAIR BONANZA
(BE33)
More flights by this aircraft type
Origin: L45 Bakersfield Mun
United States
Destination: KSNA John Wayne-Orange Co
United States
More flights between these airports :: More routes between these airports
Route: STIGR2 STIGR V183 TAFTO V137 JEFFY V459 SLI
File this flight plan on PilotEdge
Remarks:
Altitude:
(Current/Filed)
11,000ft
Speed:
(Current/Filed)
160kts
Departed: 07-Nov-18 04:49 AM
Arrived: 07-Nov-18 06:03 AM
Distance/Time
Traveled:
114nm/1:14
Distance/Time
To Go:
Arrived

Flight Plot

Page will automatically refresh every two minutes.

Flight plan parsing failed; only flown route is shown


Map Options




Map Legend


Flown Route
Filed Route
Departure Airport
Arrival Airport
Navaid (VOR, NDB)
Fix

Horizontal Profiles

Position Reports

Time Latitude Longitude Heading Altitude Ground
Speed
07-Nov-18 04:36 35.325703 -118.997776 89 381ft 0kts
07-Nov-18 04:37 35.325703 -118.997776 89 381ft 0kts
07-Nov-18 04:38 35.325703 -118.997776 89 381ft 0kts
07-Nov-18 04:39 35.325703 -118.997776 89 381ft 0kts
07-Nov-18 04:40 35.325703 -118.997776 89 381ft 0kts
07-Nov-18 04:41 35.325601 -118.997230 158 380ft 8kts
07-Nov-18 04:42 35.324051 -118.997036 174 380ft 13kts
07-Nov-18 04:43 35.321112 -118.996406 174 380ft 11kts
07-Nov-18 04:44 35.319424 -118.996187 129 379ft 0kts
07-Nov-18 04:45 35.319424 -118.996187 129 379ft 0kts
07-Nov-18 04:46 35.319424 -118.996187 129 379ft 0kts
07-Nov-18 04:47 35.319424 -118.996187 129 379ft 0kts
07-Nov-18 04:48 35.319424 -118.996187 129 379ft 0kts
07-Nov-18 04:49 35.319402 -118.996158 125 379ft 1kts
07-Nov-18 04:50 35.319643 -118.995442 354 379ft 0kts
07-Nov-18 04:51 35.319643 -118.995442 354 379ft 0kts
07-Nov-18 04:52 35.326052 -118.996232 355 400ft 93kts
07-Nov-18 04:53 35.340036 -119.009829 262 1415ft 82kts
07-Nov-18 04:54 35.340686 -119.042707 272 2241ft 105kts
07-Nov-18 04:55 35.341017 -119.077222 270 3224ft 96kts
07-Nov-18 04:56 35.340613 -119.109375 270 4064ft 96kts
07-Nov-18 04:57 35.340109 -119.142165 271 4838ft 98kts
07-Nov-18 04:58 35.339567 -119.176233 272 5567ft 100kts
07-Nov-18 04:59 35.329085 -119.205721 213 6237ft 110kts
07-Nov-18 05:00 35.302085 -119.224558 213 6908ft 113kts
07-Nov-18 05:01 35.274323 -119.243906 213 7556ft 116kts
07-Nov-18 05:02 35.246087 -119.263565 214 8206ft 117kts
07-Nov-18 05:03 35.217775 -119.283259 215 8823ft 117kts
07-Nov-18 05:04 35.189442 -119.302955 216 9407ft 117kts
07-Nov-18 05:05 35.159810 -119.319895 173 9899ft 129kts
07-Nov-18 05:06 35.132220 -119.291784 128 10348ft 132kts
07-Nov-18 05:07 35.107066 -119.258488 128 10809ft 134kts
07-Nov-18 05:08 35.080516 -119.223439 129 11009ft 154kts
07-Nov-18 05:09 35.056919 -119.192463 129 11005ft 168kts
07-Nov-18 05:10 35.023986 -119.149199 129 10948ft 178kts
07-Nov-18 05:11 34.990489 -119.105230 130 10946ft 176kts
07-Nov-18 05:12 34.957433 -119.061858 130 10946ft 174kts
07-Nov-18 05:13 34.925353 -119.019797 130 10946ft 172kts
07-Nov-18 05:14 34.893048 -118.977511 130 10940ft 171kts
07-Nov-18 05:15 34.865598 -118.941637 131 10934ft 170kts
07-Nov-18 05:16 34.833499 -118.899691 131 10928ft 169kts
07-Nov-18 05:17 34.803695 -118.856033 103 10928ft 165kts
07-Nov-18 05:18 34.791547 -118.802323 100 10925ft 164kts
07-Nov-18 05:19 34.780079 -118.748418 101 10926ft 166kts
07-Nov-18 05:20 34.768560 -118.694804 101 10926ft 167kts
07-Nov-18 05:21 34.756810 -118.640083 101 10927ft 167kts
07-Nov-18 05:22 34.732018 -118.596290 160 10927ft 166kts
07-Nov-18 05:23 34.688371 -118.578954 166 10969ft 164kts
07-Nov-18 05:24 34.646701 -118.555619 155 10975ft 167kts
07-Nov-18 05:25 34.604915 -118.531069 155 10971ft 168kts
07-Nov-18 05:26 34.562841 -118.506408 155 10969ft 169kts
07-Nov-18 05:27 34.521021 -118.481922 155 10968ft 169kts
07-Nov-18 05:28 34.479222 -118.457491 155 10967ft 169kts
07-Nov-18 05:29 34.437104 -118.432903 155 10978ft 168kts
07-Nov-18 05:30 34.394869 -118.408277 155 10978ft 169kts
07-Nov-18 05:31 34.352813 -118.383768 155 10977ft 169kts
07-Nov-18 05:32 34.310863 -118.359354 155 10976ft 170kts
07-Nov-18 05:33 34.276835 -118.339567 155 10973ft 169kts
07-Nov-18 05:34 34.235608 -118.315633 155 10972ft 169kts
07-Nov-18 05:35 34.193996 -118.291492 155 10972ft 169kts
07-Nov-18 05:36 34.152622 -118.267448 155 10973ft 169kts
07-Nov-18 05:37 34.110428 -118.243018 155 10973ft 169kts
07-Nov-18 05:38 34.068030 -118.218518 155 10973ft 169kts
07-Nov-18 05:39 34.025479 -118.193994 155 10975ft 169kts
07-Nov-18 05:40 33.981990 -118.168975 155 10536ft 182kts
07-Nov-18 05:41 33.935888 -118.142407 155 9861ft 187kts
07-Nov-18 05:42 33.889366 -118.115677 154 9182ft 188kts
07-Nov-18 05:43 33.842583 -118.088824 152 8485ft 188kts
07-Nov-18 05:44 33.800545 -118.056468 112 7788ft 179kts
07-Nov-18 05:45 33.805006 -118.002471 63 7145ft 162kts
07-Nov-18 05:46 33.823632 -117.954678 61 6545ft 159kts
07-Nov-18 05:47 33.842647 -117.907338 61 5967ft 158kts
07-Nov-18 05:48 33.861628 -117.860049 61 5477ft 162kts
07-Nov-18 05:49 33.881010 -117.811660 62 4984ft 163kts
07-Nov-18 05:50 33.900487 -117.762969 62 4490ft 164kts
07-Nov-18 05:51 33.920179 -117.713867 59 3992ft 164kts
07-Nov-18 05:52 33.957550 -117.684899 26 3524ft 161kts
07-Nov-18 05:53 33.995511 -117.668379 339 3510ft 140kts
07-Nov-18 05:54 33.999218 -117.704814 214 3512ft 139kts
07-Nov-18 05:55 33.961159 -117.702758 169 3510ft 141kts
07-Nov-18 05:56 33.924363 -117.710685 207 3509ft 139kts
07-Nov-18 05:57 33.888916 -117.733180 208 3408ft 147kts
07-Nov-18 05:58 33.854713 -117.754998 208 3404ft 136kts
07-Nov-18 05:59 33.820415 -117.776888 207 3005ft 146kts
07-Nov-18 06:00 33.783647 -117.800328 208 2326ft 149kts
07-Nov-18 06:01 33.752070 -117.820324 207 1672ft 106kts
07-Nov-18 06:02 33.729163 -117.834890 207 1146ft 85kts
07-Nov-18 06:03 33.709342 -117.847435 206 703ft 77kts
07-Nov-18 06:04 33.691404 -117.858819 206 312ft 69kts
07-Nov-18 06:05 33.674874 -117.869344 208 60ft 58kts
07-Nov-18 06:06 33.669137 -117.871644 131 59ft 0kts
07-Nov-18 06:07 33.669137 -117.871644 131 59ft 0kts
07-Nov-18 06:08 33.671555 -117.868454 39 59ft 20kts
07-Nov-18 06:09 33.672703 -117.866286 192 60ft 0kts
07-Nov-18 06:10 33.672698 -117.866288 201 59ft 0kts
07-Nov-18 06:11 33.672698 -117.866288 201 59ft 0kts

Navigation Log

Ident Type
Flight plan parsing failed, navigation log unavailable